Indus, Minnesota
Current Conditions -  °F | °C
As of 6:11 AM on Monday 24 Nov 2014 (Local Time) from KBDE Reporting Station
Light Snow Light Snow  
Wind Chill: -3°   Ceiling: 1400
Heat Index: 15°   Visibility: 4mi
Dew Point: 11°   Wind: 22mph
Humidity: 84%   Direction: 340°NNW
Pressure: 29.48"   Gusts: 30mph
Location:  48.6069°N, 94.172°W
Report Text: KBDE 241211Z AUTO 34019G26KT 4SM -SN BR OVC014 M09/M12 A2948 RMK AO2 PK WND 33026/1211 P0000 T10941117 TSNO
Loading
Personal Weather Stations






























Interactive Weather Map New forecast layout! Learn more

10-Day Weather Forecast

Advertisements
Track Severe Weather on mobile